sensor_id;sensor_type;location;lat;lon;timestamp;temperature;humidity
64961;SHT31;51487;52.266;10.542;2022-12-07T00:01:27;3.85;93.58
64961;SHT31;51487;52.266;10.542;2022-12-07T00:03:55;3.72;93.62
64961;SHT31;51487;52.266;10.542;2022-12-07T00:06:31;3.85;93.90
64961;SHT31;51487;52.266;10.542;2022-12-07T00:08:58;3.81;93.95
64961;SHT31;51487;52.266;10.542;2022-12-07T00:11:24;3.76;94.07
64961;SHT31;51487;52.266;10.542;2022-12-07T00:13:56;3.86;94.04
64961;SHT31;51487;52.266;10.542;2022-12-07T00:16:25;3.90;93.86
64961;SHT31;51487;52.266;10.542;2022-12-07T00:18:50;3.89;93.78
64961;SHT31;51487;52.266;10.542;2022-12-07T00:21:22;3.89;93.79
64961;SHT31;51487;52.266;10.542;2022-12-07T00:23:51;3.85;94.10
64961;SHT31;51487;52.266;10.542;2022-12-07T00:26:39;3.94;93.72
64961;SHT31;51487;52.266;10.542;2022-12-07T00:29:11;3.94;93.65
64961;SHT31;51487;52.266;10.542;2022-12-07T00:31:38;3.97;93.83
64961;SHT31;51487;52.266;10.542;2022-12-07T00:34:11;3.93;93.73
64961;SHT31;51487;52.266;10.542;2022-12-07T00:36:37;4.03;93.35
64961;SHT31;51487;52.266;10.542;2022-12-07T00:39:03;3.99;93.26
64961;SHT31;51487;52.266;10.542;2022-12-07T00:41:29;3.96;93.65
64961;SHT31;51487;52.266;10.542;2022-12-07T00:43:56;4.02;93.34
64961;SHT31;51487;52.266;10.542;2022-12-07T00:46:22;3.93;94.06
64961;SHT31;51487;52.266;10.542;2022-12-07T00:48:50;3.97;94.23
64961;SHT31;51487;52.266;10.542;2022-12-07T00:51:18;3.96;93.97
64961;SHT31;51487;52.266;10.542;2022-12-07T00:53:44;3.97;94.49
64961;SHT31;51487;52.266;10.542;2022-12-07T00:56:27;3.97;94.44
64961;SHT31;51487;52.266;10.542;2022-12-07T00:59:01;4.14;94.20
64961;SHT31;51487;52.266;10.542;2022-12-07T01:01:31;4.14;94.18
64961;SHT31;51487;52.266;10.542;2022-12-07T01:03:57;4.00;94.50
64961;SHT31;51487;52.266;10.542;2022-12-07T01:06:25;4.03;94.49
64961;SHT31;51487;52.266;10.542;2022-12-07T01:08:51;4.20;94.32
64961;SHT31;51487;52.266;10.542;2022-12-07T01:11:22;4.00;95.04
64961;SHT31;51487;52.266;10.542;2022-12-07T01:13:50;3.94;94.97
64961;SHT31;51487;52.266;10.542;2022-12-07T01:16:18;4.09;94.74
64961;SHT31;51487;52.266;10.542;2022-12-07T01:18:48;4.02;94.87
64961;SHT31;51487;52.266;10.542;2022-12-07T01:21:21;4.14;94.56
64961;SHT31;51487;52.266;10.542;2022-12-07T01:23:47;4.16;94.98
64961;SHT31;51487;52.266;10.542;2022-12-07T01:26:19;4.18;94.97
64961;SHT31;51487;52.266;10.542;2022-12-07T01:28:45;4.14;94.97
64961;SHT31;51487;52.266;10.542;2022-12-07T01:31:20;4.13;95.34
64961;SHT31;51487;52.266;10.542;2022-12-07T01:33:49;4.13;95.24
64961;SHT31;51487;52.266;10.542;2022-12-07T01:36:26;4.09;95.32
64961;SHT31;51487;52.266;10.542;2022-12-07T01:38:57;4.06;95.41
64961;SHT31;51487;52.266;10.542;2022-12-07T01:41:27;4.04;95.50
64961;SHT31;51487;52.266;10.542;2022-12-07T01:46:48;4.03;95.55
64961;SHT31;51487;52.266;10.542;2022-12-07T01:52:33;3.99;95.92
64961;SHT31;51487;52.266;10.542;2022-12-07T01:55:06;4.03;96.23
64961;SHT31;51487;52.266;10.542;2022-12-07T01:57:35;3.93;96.77
64961;SHT31;51487;52.266;10.542;2022-12-07T02:00:04;3.94;96.93
64961;SHT31;51487;52.266;10.542;2022-12-07T02:02:34;4.02;96.95
64961;SHT31;51487;52.266;10.542;2022-12-07T02:05:05;4.10;97.07
64961;SHT31;51487;52.266;10.542;2022-12-07T02:07:34;4.09;96.84
64961;SHT31;51487;52.266;10.542;2022-12-07T02:10:23;4.07;96.80
64961;SHT31;51487;52.266;10.542;2022-12-07T02:12:55;4.11;96.56
64961;SHT31;51487;52.266;10.542;2022-12-07T02:15:39;4.14;96.59
64961;SHT31;51487;52.266;10.542;2022-12-07T02:18:36;4.17;96.08
64961;SHT31;51487;52.266;10.542;2022-12-07T02:24:13;4.33;95.24
64961;SHT31;51487;52.266;10.542;2022-12-07T02:32:33;4.09;96.44
64961;SHT31;51487;52.266;10.542;2022-12-07T02:35:30;4.17;96.28
64961;SHT31;51487;52.266;10.542;2022-12-07T02:38:08;4.02;96.29
64961;SHT31;51487;52.266;10.542;2022-12-07T02:41:00;4.13;96.28
64961;SHT31;51487;52.266;10.542;2022-12-07T02:46:12;4.16;96.51
64961;SHT31;51487;52.266;10.542;2022-12-07T02:48:41;4.06;96.59
64961;SHT31;51487;52.266;10.542;2022-12-07T02:51:08;4.11;96.71
64961;SHT31;51487;52.266;10.542;2022-12-07T02:53:43;4.07;96.78
64961;SHT31;51487;52.266;10.542;2022-12-07T03:10:58;4.23;96.95
64961;SHT31;51487;52.266;10.542;2022-12-07T03:13:34;4.34;96.66
64961;SHT31;51487;52.266;10.542;2022-12-07T03:16:14;4.37;96.67
64961;SHT31;51487;52.266;10.542;2022-12-07T03:19:02;4.41;96.47
64961;SHT31;51487;52.266;10.542;2022-12-07T03:21:38;4.42;96.18
64961;SHT31;51487;52.266;10.542;2022-12-07T03:24:11;4.54;96.02
64961;SHT31;51487;52.266;10.542;2022-12-07T03:26:49;4.47;96.27
64961;SHT31;51487;52.266;10.542;2022-12-07T03:29:35;4.51;96.34
64961;SHT31;51487;52.266;10.542;2022-12-07T03:32:14;4.65;95.83
64961;SHT31;51487;52.266;10.542;2022-12-07T03:35:12;4.69;95.63
64961;SHT31;51487;52.266;10.542;2022-12-07T03:38:19;4.73;95.60
64961;SHT31;51487;52.266;10.542;2022-12-07T03:41:03;4.68;95.52
64961;SHT31;51487;52.266;10.542;2022-12-07T03:43:30;4.61;95.73
64961;SHT31;51487;52.266;10.542;2022-12-07T03:51:40;4.62;95.75
64961;SHT31;51487;52.266;10.542;2022-12-07T03:54:17;4.64;95.59
64961;SHT31;51487;52.266;10.542;2022-12-07T03:56:46;4.55;96.07
64961;SHT31;51487;52.266;10.542;2022-12-07T03:59:14;4.48;96.12
64961;SHT31;51487;52.266;10.542;2022-12-07T04:01:56;4.48;96.13
64961;SHT31;51487;52.266;10.542;2022-12-07T04:04:25;4.50;95.87
64961;SHT31;51487;52.266;10.542;2022-12-07T04:06:50;4.47;95.84
64961;SHT31;51487;52.266;10.542;2022-12-07T04:09:17;4.61;95.62
64961;SHT31;51487;52.266;10.542;2022-12-07T04:11:42;4.68;95.26
64961;SHT31;51487;52.266;10.542;2022-12-07T04:14:08;4.71;95.03
64961;SHT31;51487;52.266;10.542;2022-12-07T04:16:56;4.62;95.02
64961;SHT31;51487;52.266;10.542;2022-12-07T04:19:25;4.78;94.76
64961;SHT31;51487;52.266;10.542;2022-12-07T04:21:51;4.69;94.81
64961;SHT31;51487;52.266;10.542;2022-12-07T04:24:17;4.83;94.59
64961;SHT31;51487;52.266;10.542;2022-12-07T04:26:44;4.83;94.10
64961;SHT31;51487;52.266;10.542;2022-12-07T04:29:10;4.78;94.29
64961;SHT31;51487;52.266;10.542;2022-12-07T04:31:36;4.82;94.23
64961;SHT31;51487;52.266;10.542;2022-12-07T04:34:04;4.73;94.37
64961;SHT31;51487;52.266;10.542;2022-12-07T04:36:31;4.71;94.64
64961;SHT31;51487;52.266;10.542;2022-12-07T04:38:56;4.71;94.57
64961;SHT31;51487;52.266;10.542;2022-12-07T04:41:24;4.71;94.54
64961;SHT31;51487;52.266;10.542;2022-12-07T04:44:01;4.62;94.66
64961;SHT31;51487;52.266;10.542;2022-12-07T04:46:30;4.65;94.60
64961;SHT31;51487;52.266;10.542;2022-12-07T04:48:56;4.67;94.72
64961;SHT31;51487;52.266;10.542;2022-12-07T04:51:25;4.72;94.71
64961;SHT31;51487;52.266;10.542;2022-12-07T04:53:51;4.64;94.71
64961;SHT31;51487;52.266;10.542;2022-12-07T04:56:17;4.54;94.95
64961;SHT31;51487;52.266;10.542;2022-12-07T04:58:46;4.55;95.24
64961;SHT31;51487;52.266;10.542;2022-12-07T05:01:13;4.62;95.25
64961;SHT31;51487;52.266;10.542;2022-12-07T05:03:39;4.48;95.30
64961;SHT31;51487;52.266;10.542;2022-12-07T05:06:06;4.51;95.26
64961;SHT31;51487;52.266;10.542;2022-12-07T05:08:33;4.51;95.52
64961;SHT31;51487;52.266;10.542;2022-12-07T05:10:59;4.60;94.97
64961;SHT31;51487;52.266;10.542;2022-12-07T05:13:25;4.54;94.81
64961;SHT31;51487;52.266;10.542;2022-12-07T05:15:51;4.51;95.13
64961;SHT31;51487;52.266;10.542;2022-12-07T05:18:17;4.40;95.12
64961;SHT31;51487;52.266;10.542;2022-12-07T05:20:44;4.42;94.96
64961;SHT31;51487;52.266;10.542;2022-12-07T05:23:10;4.37;95.32
64961;SHT31;51487;52.266;10.542;2022-12-07T05:25:36;4.41;95.18
64961;SHT31;51487;52.266;10.542;2022-12-07T05:28:02;4.37;95.24
64961;SHT31;51487;52.266;10.542;2022-12-07T05:30:27;4.37;95.36
64961;SHT31;51487;52.266;10.542;2022-12-07T05:32:53;4.34;95.65
64961;SHT31;51487;52.266;10.542;2022-12-07T05:35:19;4.33;95.44
64961;SHT31;51487;52.266;10.542;2022-12-07T05:37:45;4.34;95.28
64961;SHT31;51487;52.266;10.542;2022-12-07T05:40:12;4.33;95.11
64961;SHT31;51487;52.266;10.542;2022-12-07T05:42:39;4.29;95.20
64961;SHT31;51487;52.266;10.542;2022-12-07T05:45:06;4.23;95.00
64961;SHT31;51487;52.266;10.542;2022-12-07T05:47:32;4.24;95.38
64961;SHT31;51487;52.266;10.542;2022-12-07T05:49:58;4.18;95.54
64961;SHT31;51487;52.266;10.542;2022-12-07T05:52:23;4.31;95.36
64961;SHT31;51487;52.266;10.542;2022-12-07T05:54:49;4.36;95.01
64961;SHT31;51487;52.266;10.542;2022-12-07T05:57:15;4.29;95.41
64961;SHT31;51487;52.266;10.542;2022-12-07T05:59:40;4.42;94.83
64961;SHT31;51487;52.266;10.542;2022-12-07T06:02:13;4.50;94.43
64961;SHT31;51487;52.266;10.542;2022-12-07T06:04:43;4.38;94.83
64961;SHT31;51487;52.266;10.542;2022-12-07T06:07:10;4.55;94.50
64961;SHT31;51487;52.266;10.542;2022-12-07T06:09:37;4.51;94.51
64961;SHT31;51487;52.266;10.542;2022-12-07T06:12:03;4.57;94.36
64961;SHT31;51487;52.266;10.542;2022-12-07T06:14:47;4.54;94.18
64961;SHT31;51487;52.266;10.542;2022-12-07T06:17:15;4.54;94.20
64961;SHT31;51487;52.266;10.542;2022-12-07T06:19:41;4.48;93.38
64961;SHT31;51487;52.266;10.542;2022-12-07T06:22:07;4.40;93.39
64961;SHT31;51487;52.266;10.542;2022-12-07T06:24:34;4.34;93.49
64961;SHT31;51487;52.266;10.542;2022-12-07T06:27:00;4.20;93.84
64961;SHT31;51487;52.266;10.542;2022-12-07T06:29:25;4.04;93.90
64961;SHT31;51487;52.266;10.542;2022-12-07T06:31:51;3.89;94.78
64961;SHT31;51487;52.266;10.542;2022-12-07T06:34:21;3.86;94.70
64961;SHT31;51487;52.266;10.542;2022-12-07T06:36:48;3.79;94.89
64961;SHT31;51487;52.266;10.542;2022-12-07T06:39:18;3.66;96.13
64961;SHT31;51487;52.266;10.542;2022-12-07T06:41:44;3.51;96.98
64961;SHT31;51487;52.266;10.542;2022-12-07T06:44:09;3.50;96.72
64961;SHT31;51487;52.266;10.542;2022-12-07T06:46:35;3.51;97.10
64961;SHT31;51487;52.266;10.542;2022-12-07T06:49:01;3.48;97.24
64961;SHT31;51487;52.266;10.542;2022-12-07T06:51:27;3.51;97.55
64961;SHT31;51487;52.266;10.542;2022-12-07T06:53:53;3.59;97.33
64961;SHT31;51487;52.266;10.542;2022-12-07T06:56:19;3.63;97.58
64961;SHT31;51487;52.266;10.542;2022-12-07T06:58:45;3.78;97.64
64961;SHT31;51487;52.266;10.542;2022-12-07T07:01:13;3.85;97.35
64961;SHT31;51487;52.266;10.542;2022-12-07T07:03:39;3.96;97.17
64961;SHT31;51487;52.266;10.542;2022-12-07T07:06:06;3.99;97.03
64961;SHT31;51487;52.266;10.542;2022-12-07T07:08:34;3.86;97.39
64961;SHT31;51487;52.266;10.542;2022-12-07T07:10:59;3.94;97.44
64961;SHT31;51487;52.266;10.542;2022-12-07T07:13:25;4.16;97.00
64961;SHT31;51487;52.266;10.542;2022-12-07T07:15:51;4.24;96.57
64961;SHT31;51487;52.266;10.542;2022-12-07T07:18:16;4.31;96.05
64961;SHT31;51487;52.266;10.542;2022-12-07T07:20:42;4.34;95.91
64961;SHT31;51487;52.266;10.542;2022-12-07T07:23:07;4.42;95.35
64961;SHT31;51487;52.266;10.542;2022-12-07T07:25:33;4.42;95.39
64961;SHT31;51487;52.266;10.542;2022-12-07T07:27:59;4.42;95.41
64961;SHT31;51487;52.266;10.542;2022-12-07T07:30:26;4.45;95.34
64961;SHT31;51487;52.266;10.542;2022-12-07T07:32:58;4.51;94.84
64961;SHT31;51487;52.266;10.542;2022-12-07T07:35:25;4.51;94.93
64961;SHT31;51487;52.266;10.542;2022-12-07T07:37:51;4.57;94.44
64961;SHT31;51487;52.266;10.542;2022-12-07T07:40:17;4.45;94.40
64961;SHT31;51487;52.266;10.542;2022-12-07T07:42:42;4.47;94.35
64961;SHT31;51487;52.266;10.542;2022-12-07T07:45:08;4.40;94.94
64961;SHT31;51487;52.266;10.542;2022-12-07T07:47:34;4.41;95.62
64961;SHT31;51487;52.266;10.542;2022-12-07T07:50:00;4.50;95.04
64961;SHT31;51487;52.266;10.542;2022-12-07T07:52:26;4.60;94.92
64961;SHT31;51487;52.266;10.542;2022-12-07T07:54:51;4.54;94.86
64961;SHT31;51487;52.266;10.542;2022-12-07T07:57:17;4.30;95.37
64961;SHT31;51487;52.266;10.542;2022-12-07T07:59:43;4.40;95.08
64961;SHT31;51487;52.266;10.542;2022-12-07T08:02:16;4.29;94.95
64961;SHT31;51487;52.266;10.542;2022-12-07T08:04:42;4.33;95.62
64961;SHT31;51487;52.266;10.542;2022-12-07T08:07:07;4.27;95.55
64961;SHT31;51487;52.266;10.542;2022-12-07T08:09:33;4.40;95.15
64961;SHT31;51487;52.266;10.542;2022-12-07T08:11:58;4.36;95.32
64961;SHT31;51487;52.266;10.542;2022-12-07T08:14:24;4.48;94.61
64961;SHT31;51487;52.266;10.542;2022-12-07T08:16:50;4.48;94.86
64961;SHT31;51487;52.266;10.542;2022-12-07T08:19:15;4.31;94.61
64961;SHT31;51487;52.266;10.542;2022-12-07T08:21:41;4.14;95.81
64961;SHT31;51487;52.266;10.542;2022-12-07T08:24:06;4.23;95.28
64961;SHT31;51487;52.266;10.542;2022-12-07T08:26:32;4.48;94.80
64961;SHT31;51487;52.266;10.542;2022-12-07T08:28:57;4.54;93.95
64961;SHT31;51487;52.266;10.542;2022-12-07T08:31:24;4.42;94.14
64961;SHT31;51487;52.266;10.542;2022-12-07T08:33:49;4.57;94.72
64961;SHT31;51487;52.266;10.542;2022-12-07T08:36:17;4.55;94.00
64961;SHT31;51487;52.266;10.542;2022-12-07T08:38:43;4.54;93.82
64961;SHT31;51487;52.266;10.542;2022-12-07T08:41:08;4.58;93.79
64961;SHT31;51487;52.266;10.542;2022-12-07T08:43:35;4.58;93.56
64961;SHT31;51487;52.266;10.542;2022-12-07T08:46:26;4.42;94.12
64961;SHT31;51487;52.266;10.542;2022-12-07T08:49:03;4.40;93.76
64961;SHT31;51487;52.266;10.542;2022-12-07T08:51:30;4.50;93.74
64961;SHT31;51487;52.266;10.542;2022-12-07T08:53:58;4.61;93.53
64961;SHT31;51487;52.266;10.542;2022-12-07T08:56:26;4.41;94.07
64961;SHT31;51487;52.266;10.542;2022-12-07T08:58:52;4.57;93.45
64961;SHT31;51487;52.266;10.542;2022-12-07T09:01:18;4.42;93.93
64961;SHT31;51487;52.266;10.542;2022-12-07T09:03:43;4.44;93.70
64961;SHT31;51487;52.266;10.542;2022-12-07T09:06:09;4.38;94.19
64961;SHT31;51487;52.266;10.542;2022-12-07T09:08:45;4.51;94.44
64961;SHT31;51487;52.266;10.542;2022-12-07T09:11:11;4.45;94.24
64961;SHT31;51487;52.266;10.542;2022-12-07T09:13:36;4.64;93.86
64961;SHT31;51487;52.266;10.542;2022-12-07T09:16:02;4.79;93.17
64961;SHT31;51487;52.266;10.542;2022-12-07T09:18:28;4.81;92.68
64961;SHT31;51487;52.266;10.542;2022-12-07T09:20:53;4.79;92.99
64961;SHT31;51487;52.266;10.542;2022-12-07T09:23:19;4.57;93.48
64961;SHT31;51487;52.266;10.542;2022-12-07T09:25:44;4.64;94.00
64961;SHT31;51487;52.266;10.542;2022-12-07T09:28:10;4.61;93.43
64961;SHT31;51487;52.266;10.542;2022-12-07T09:30:35;4.57;94.25
64961;SHT31;51487;52.266;10.542;2022-12-07T09:33:01;4.60;94.06
64961;SHT31;51487;52.266;10.542;2022-12-07T09:35:27;4.50;93.89
64961;SHT31;51487;52.266;10.542;2022-12-07T09:37:53;4.55;94.18
64961;SHT31;51487;52.266;10.542;2022-12-07T09:40:21;4.60;93.42
64961;SHT31;51487;52.266;10.542;2022-12-07T09:42:52;4.72;93.75
64961;SHT31;51487;52.266;10.542;2022-12-07T09:45:35;4.81;92.61
64961;SHT31;51487;52.266;10.542;2022-12-07T09:48:03;4.82;92.69
64961;SHT31;51487;52.266;10.542;2022-12-07T09:50:30;4.78;93.12
64961;SHT31;51487;52.266;10.542;2022-12-07T09:53:25;4.72;92.96
64961;SHT31;51487;52.266;10.542;2022-12-07T09:55:51;4.65;92.57
64961;SHT31;51487;52.266;10.542;2022-12-07T09:58:26;4.51;93.39
64961;SHT31;51487;52.266;10.542;2022-12-07T10:00:57;4.60;92.91
64961;SHT31;51487;52.266;10.542;2022-12-07T10:03:26;4.73;92.91
64961;SHT31;51487;52.266;10.542;2022-12-07T10:05:52;4.75;92.02
64961;SHT31;51487;52.266;10.542;2022-12-07T10:08:18;4.71;92.70
64961;SHT31;51487;52.266;10.542;2022-12-07T10:10:48;4.85;92.21
64961;SHT31;51487;52.266;10.542;2022-12-07T10:13:21;4.83;91.43
64961;SHT31;51487;52.266;10.542;2022-12-07T10:15:55;4.91;92.40
64961;SHT31;51487;52.266;10.542;2022-12-07T10:21:11;5.12;91.35
64961;SHT31;51487;52.266;10.542;2022-12-07T10:26:54;5.00;91.61
64961;SHT31;51487;52.266;10.542;2022-12-07T10:29:36;5.10;90.67
64961;SHT31;51487;52.266;10.542;2022-12-07T10:32:32;5.03;91.04
64961;SHT31;51487;52.266;10.542;2022-12-07T10:35:27;4.79;91.58
64961;SHT31;51487;52.266;10.542;2022-12-07T10:37:55;4.82;91.63
64961;SHT31;51487;52.266;10.542;2022-12-07T10:40:39;4.67;91.63
64961;SHT31;51487;52.266;10.542;2022-12-07T10:49:39;4.97;90.18
64961;SHT31;51487;52.266;10.542;2022-12-07T11:01:47;5.00;89.61
64961;SHT31;51487;52.266;10.542;2022-12-07T11:13:18;4.92;89.21
64961;SHT31;51487;52.266;10.542;2022-12-07T11:16:49;5.23;88.74
64961;SHT31;51487;52.266;10.542;2022-12-07T11:19:40;5.06;89.34
64961;SHT31;51487;52.266;10.542;2022-12-07T11:22:37;5.00;89.78
64961;SHT31;51487;52.266;10.542;2022-12-07T11:31:24;5.09;89.26
64961;SHT31;51487;52.266;10.542;2022-12-07T11:34:24;4.93;89.67
64961;SHT31;51487;52.266;10.542;2022-12-07T11:36:54;4.92;89.72
64961;SHT31;51487;52.266;10.542;2022-12-07T11:39:33;4.96;89.03
64961;SHT31;51487;52.266;10.542;2022-12-07T11:42:11;5.08;88.95
64961;SHT31;51487;52.266;10.542;2022-12-07T11:44:57;5.19;88.89
64961;SHT31;51487;52.266;10.542;2022-12-07T11:47:45;5.47;87.77
64961;SHT31;51487;52.266;10.542;2022-12-07T11:50:42;5.39;87.80
64961;SHT31;51487;52.266;10.542;2022-12-07T11:53:21;5.47;87.63
64961;SHT31;51487;52.266;10.542;2022-12-07T11:56:13;5.19;88.07
64961;SHT31;51487;52.266;10.542;2022-12-07T11:58:49;5.26;88.21
64961;SHT31;51487;52.266;10.542;2022-12-07T12:06:35;5.41;87.74
64961;SHT31;51487;52.266;10.542;2022-12-07T12:09:11;5.39;87.71
64961;SHT31;51487;52.266;10.542;2022-12-07T12:22:46;4.93;88.88
64961;SHT31;51487;52.266;10.542;2022-12-07T12:25:34;5.00;88.93
64961;SHT31;51487;52.266;10.542;2022-12-07T12:28:02;4.93;88.89
64961;SHT31;51487;52.266;10.542;2022-12-07T12:30:37;5.06;88.54
64961;SHT31;51487;52.266;10.542;2022-12-07T12:33:27;4.95;88.76
64961;SHT31;51487;52.266;10.542;2022-12-07T12:47:37;5.18;88.65
64961;SHT31;51487;52.266;10.542;2022-12-07T12:50:23;5.08;88.27
64961;SHT31;51487;52.266;10.542;2022-12-07T12:56:07;5.23;88.77
64961;SHT31;51487;52.266;10.542;2022-12-07T12:58:38;5.39;87.63
64961;SHT31;51487;52.266;10.542;2022-12-07T13:04:03;5.44;86.61
64961;SHT31;51487;52.266;10.542;2022-12-07T13:06:41;5.40;86.27
64961;SHT31;51487;52.266;10.542;2022-12-07T13:09:21;5.22;86.75
64961;SHT31;51487;52.266;10.542;2022-12-07T13:11:50;5.16;87.56
64961;SHT31;51487;52.266;10.542;2022-12-07T13:14:58;5.12;86.83
64961;SHT31;51487;52.266;10.542;2022-12-07T13:20:04;4.96;87.98
64961;SHT31;51487;52.266;10.542;2022-12-07T13:25:18;4.91;88.24
64961;SHT31;51487;52.266;10.542;2022-12-07T13:27:56;4.88;88.57
64961;SHT31;51487;52.266;10.542;2022-12-07T13:30:23;4.89;88.54
64961;SHT31;51487;52.266;10.542;2022-12-07T13:32:55;4.86;88.98
64961;SHT31;51487;52.266;10.542;2022-12-07T13:35:47;4.69;89.99
64961;SHT31;51487;52.266;10.542;2022-12-07T13:38:34;4.86;89.28
64961;SHT31;51487;52.266;10.542;2022-12-07T13:41:17;4.88;89.32
64961;SHT31;51487;52.266;10.542;2022-12-07T13:44:05;4.81;90.06
64961;SHT31;51487;52.266;10.542;2022-12-07T13:49:44;4.91;89.56
64961;SHT31;51487;52.266;10.542;2022-12-07T13:52:16;4.85;89.68
64961;SHT31;51487;52.266;10.542;2022-12-07T13:57:21;4.69;90.32
64961;SHT31;51487;52.266;10.542;2022-12-07T13:59:47;4.64;90.67
64961;SHT31;51487;52.266;10.542;2022-12-07T14:02:34;4.62;90.71
64961;SHT31;51487;52.266;10.542;2022-12-07T14:07:54;4.58;90.79
64961;SHT31;51487;52.266;10.542;2022-12-07T14:10:29;4.61;91.38
64961;SHT31;51487;52.266;10.542;2022-12-07T14:12:56;4.60;91.03
64961;SHT31;51487;52.266;10.542;2022-12-07T14:15:28;4.50;91.90
64961;SHT31;51487;52.266;10.542;2022-12-07T14:17:55;4.61;91.54
64961;SHT31;51487;52.266;10.542;2022-12-07T14:20:36;4.60;91.07
64961;SHT31;51487;52.266;10.542;2022-12-07T14:23:03;4.62;91.16
64961;SHT31;51487;52.266;10.542;2022-12-07T14:25:50;4.62;90.86
64961;SHT31;51487;52.266;10.542;2022-12-07T14:28:32;4.57;91.19
64961;SHT31;51487;52.266;10.542;2022-12-07T14:30:59;4.69;90.99
64961;SHT31;51487;52.266;10.542;2022-12-07T14:33:25;4.72;90.95
64961;SHT31;51487;52.266;10.542;2022-12-07T14:35:51;4.76;90.55
64961;SHT31;51487;52.266;10.542;2022-12-07T14:38:21;4.81;90.17
64961;SHT31;51487;52.266;10.542;2022-12-07T14:40:47;4.86;89.91
64961;SHT31;51487;52.266;10.542;2022-12-07T14:43:17;4.72;89.78
64961;SHT31;51487;52.266;10.542;2022-12-07T14:45:43;4.68;90.25
64961;SHT31;51487;52.266;10.542;2022-12-07T14:48:14;4.83;89.89
64961;SHT31;51487;52.266;10.542;2022-12-07T14:50:44;4.83;89.55
64961;SHT31;51487;52.266;10.542;2022-12-07T14:53:17;4.81;89.54
64961;SHT31;51487;52.266;10.542;2022-12-07T14:55:43;4.82;89.38
64961;SHT31;51487;52.266;10.542;2022-12-07T14:58:15;4.82;89.35
64961;SHT31;51487;52.266;10.542;2022-12-07T15:00:41;4.72;89.81
64961;SHT31;51487;52.266;10.542;2022-12-07T15:03:06;4.82;89.58
64961;SHT31;51487;52.266;10.542;2022-12-07T15:05:33;4.93;89.46
64961;SHT31;51487;52.266;10.542;2022-12-07T15:07:59;4.88;89.48
64961;SHT31;51487;52.266;10.542;2022-12-07T15:10:32;4.86;89.92
64961;SHT31;51487;52.266;10.542;2022-12-07T15:13:02;4.81;89.94
64961;SHT31;51487;52.266;10.542;2022-12-07T15:15:48;4.91;89.72
64961;SHT31;51487;52.266;10.542;2022-12-07T15:18:15;4.86;89.49
64961;SHT31;51487;52.266;10.542;2022-12-07T15:20:41;4.83;89.72
64961;SHT31;51487;52.266;10.542;2022-12-07T15:23:07;4.91;89.29
64961;SHT31;51487;52.266;10.542;2022-12-07T15:25:33;4.86;89.48
64961;SHT31;51487;52.266;10.542;2022-12-07T15:27:59;4.83;89.54
64961;SHT31;51487;52.266;10.542;2022-12-07T15:30:24;4.78;89.37
64961;SHT31;51487;52.266;10.542;2022-12-07T15:32:51;4.81;89.42
64961;SHT31;51487;52.266;10.542;2022-12-07T15:35:18;4.76;89.25
64961;SHT31;51487;52.266;10.542;2022-12-07T15:37:43;4.76;89.28
64961;SHT31;51487;52.266;10.542;2022-12-07T15:40:10;4.78;88.83
64961;SHT31;51487;52.266;10.542;2022-12-07T15:42:36;4.75;88.76
64961;SHT31;51487;52.266;10.542;2022-12-07T15:45:02;4.79;88.44
64961;SHT31;51487;52.266;10.542;2022-12-07T15:47:30;4.85;88.09
64961;SHT31;51487;52.266;10.542;2022-12-07T15:49:55;4.82;87.92
64961;SHT31;51487;52.266;10.542;2022-12-07T15:52:21;4.83;87.87
64961;SHT31;51487;52.266;10.542;2022-12-07T15:54:46;4.83;87.87
64961;SHT31;51487;52.266;10.542;2022-12-07T15:57:13;4.89;88.11
64961;SHT31;51487;52.266;10.542;2022-12-07T15:59:38;4.76;88.36
64961;SHT31;51487;52.266;10.542;2022-12-07T16:02:04;4.82;89.06
64961;SHT31;51487;52.266;10.542;2022-12-07T16:04:30;4.86;88.86
64961;SHT31;51487;52.266;10.542;2022-12-07T16:06:56;4.60;90.41
64961;SHT31;51487;52.266;10.542;2022-12-07T16:09:21;4.29;89.80
64961;SHT31;51487;52.266;10.542;2022-12-07T16:11:47;4.03;90.42
64961;SHT31;51487;52.266;10.542;2022-12-07T16:14:13;3.73;91.85
64961;SHT31;51487;52.266;10.542;2022-12-07T16:16:38;3.58;92.43
64961;SHT31;51487;52.266;10.542;2022-12-07T16:19:05;3.10;94.33
64961;SHT31;51487;52.266;10.542;2022-12-07T16:21:31;2.82;95.73
64961;SHT31;51487;52.266;10.542;2022-12-07T16:23:59;2.55;96.04
64961;SHT31;51487;52.266;10.542;2022-12-07T16:26:24;2.64;95.95
64961;SHT31;51487;52.266;10.542;2022-12-07T16:28:52;2.66;96.29
64961;SHT31;51487;52.266;10.542;2022-12-07T16:31:21;2.80;95.40
64961;SHT31;51487;52.266;10.542;2022-12-07T16:33:49;2.79;95.06
64961;SHT31;51487;52.266;10.542;2022-12-07T16:36:16;2.84;94.96
64961;SHT31;51487;52.266;10.542;2022-12-07T16:38:43;2.84;95.42
64961;SHT31;51487;52.266;10.542;2022-12-07T16:41:10;2.92;94.71
64961;SHT31;51487;52.266;10.542;2022-12-07T16:43:36;3.08;94.49
64961;SHT31;51487;52.266;10.542;2022-12-07T16:46:03;3.07;94.23
64961;SHT31;51487;52.266;10.542;2022-12-07T16:48:29;3.13;93.60
64961;SHT31;51487;52.266;10.542;2022-12-07T16:50:54;3.13;94.21
64961;SHT31;51487;52.266;10.542;2022-12-07T16:53:22;3.08;93.88
64961;SHT31;51487;52.266;10.542;2022-12-07T16:55:48;2.82;94.76
64961;SHT31;51487;52.266;10.542;2022-12-07T16:58:15;2.86;94.72
64961;SHT31;51487;52.266;10.542;2022-12-07T17:00:43;2.93;94.02
64961;SHT31;51487;52.266;10.542;2022-12-07T17:03:10;3.03;94.38
64961;SHT31;51487;52.266;10.542;2022-12-07T17:05:40;3.13;93.85
64961;SHT31;51487;52.266;10.542;2022-12-07T17:08:07;3.21;93.81
64961;SHT31;51487;52.266;10.542;2022-12-07T17:10:40;3.31;93.32
64961;SHT31;51487;52.266;10.542;2022-12-07T17:13:06;3.20;93.86
64961;SHT31;51487;52.266;10.542;2022-12-07T17:16:09;3.17;93.46
64961;SHT31;51487;52.266;10.542;2022-12-07T17:18:35;3.15;94.03
64961;SHT31;51487;52.266;10.542;2022-12-07T17:21:05;3.34;95.25
64961;SHT31;51487;52.266;10.542;2022-12-07T17:23:32;3.45;93.42
64961;SHT31;51487;52.266;10.542;2022-12-07T17:26:11;3.54;93.20
64961;SHT31;51487;52.266;10.542;2022-12-07T17:28:38;3.42;93.08
64961;SHT31;51487;52.266;10.542;2022-12-07T17:31:10;3.34;93.57
64961;SHT31;51487;52.266;10.542;2022-12-07T17:33:36;3.38;93.92
64961;SHT31;51487;52.266;10.542;2022-12-07T17:36:20;3.38;94.34
64961;SHT31;51487;52.266;10.542;2022-12-07T17:38:46;3.34;94.34
64961;SHT31;51487;52.266;10.542;2022-12-07T17:41:22;3.34;94.16
64961;SHT31;51487;52.266;10.542;2022-12-07T17:44:12;3.38;94.07
64961;SHT31;51487;52.266;10.542;2022-12-07T17:46:39;3.24;94.74
64961;SHT31;51487;52.266;10.542;2022-12-07T17:49:06;3.23;94.54
64961;SHT31;51487;52.266;10.542;2022-12-07T17:51:31;3.27;94.39
64961;SHT31;51487;52.266;10.542;2022-12-07T17:54:17;3.36;94.44
64961;SHT31;51487;52.266;10.542;2022-12-07T17:56:44;3.45;93.66